sensor_id;sensor_type;location;lat;lon;timestamp;P1;durP1;ratioP1;P2;durP2;ratioP2
79414;SDS011;68864;44.972;19.612;2023-07-09T00:02:11;15.82;;;8.63;;
79414;SDS011;68864;44.972;19.612;2023-07-09T00:04:38;15.52;;;7.53;;
79414;SDS011;68864;44.972;19.612;2023-07-09T00:07:05;12.45;;;4.40;;
79414;SDS011;68864;44.972;19.612;2023-07-09T00:09:37;10.27;;;5.18;;
79414;SDS011;68864;44.972;19.612;2023-07-09T00:12:05;11.95;;;7.93;;
79414;SDS011;68864;44.972;19.612;2023-07-09T00:14:39;12.40;;;7.97;;
79414;SDS011;68864;44.972;19.612;2023-07-09T00:17:07;11.85;;;7.05;;
79414;SDS011;68864;44.972;19.612;2023-07-09T00:19:36;13.20;;;4.45;;
79414;SDS011;68864;44.972;19.612;2023-07-09T00:22:04;12.15;;;5.03;;
79414;SDS011;68864;44.972;19.612;2023-07-09T00:24:42;12.90;;;7.80;;
79414;SDS011;68864;44.972;19.612;2023-07-09T00:27:09;9.80;;;6.68;;
79414;SDS011;68864;44.972;19.612;2023-07-09T00:32:07;13.75;;;7.72;;
79414;SDS011;68864;44.972;19.612;2023-07-09T00:34:37;10.93;;;6.18;;
79414;SDS011;68864;44.972;19.612;2023-07-09T00:39:34;10.63;;;6.22;;
79414;SDS011;68864;44.972;19.612;2023-07-09T00:42:01;13.18;;;6.57;;
79414;SDS011;68864;44.972;19.612;2023-07-09T00:49:57;12.85;;;6.10;;
79414;SDS011;68864;44.972;19.612;2023-07-09T00:52:32;9.63;;;4.35;;
79414;SDS011;68864;44.972;19.612;2023-07-09T00:55:03;10.88;;;6.97;;
79414;SDS011;68864;44.972;19.612;2023-07-09T00:57:35;12.07;;;6.60;;
79414;SDS011;68864;44.972;19.612;2023-07-09T01:00:11;9.18;;;6.80;;
79414;SDS011;68864;44.972;19.612;2023-07-09T01:02:43;9.63;;;5.15;;
79414;SDS011;68864;44.972;19.612;2023-07-09T01:07:42;8.45;;;6.47;;
79414;SDS011;68864;44.972;19.612;2023-07-09T01:10:11;10.05;;;6.07;;
79414;SDS011;68864;44.972;19.612;2023-07-09T01:12:37;9.23;;;6.28;;
79414;SDS011;68864;44.972;19.612;2023-07-09T01:17:32;9.88;;;6.13;;
79414;SDS011;68864;44.972;19.612;2023-07-09T01:20:01;13.43;;;6.72;;
79414;SDS011;68864;44.972;19.612;2023-07-09T01:22:29;10.63;;;7.85;;
79414;SDS011;68864;44.972;19.612;2023-07-09T01:24:59;13.32;;;7.78;;
79414;SDS011;68864;44.972;19.612;2023-07-09T01:27:28;11.90;;;7.68;;
79414;SDS011;68864;44.972;19.612;2023-07-09T01:29:58;12.20;;;7.70;;
79414;SDS011;68864;44.972;19.612;2023-07-09T01:32:26;14.02;;;8.02;;
79414;SDS011;68864;44.972;19.612;2023-07-09T01:37:21;11.02;;;5.65;;
79414;SDS011;68864;44.972;19.612;2023-07-09T01:39:52;11.88;;;4.63;;
79414;SDS011;68864;44.972;19.612;2023-07-09T01:42:20;11.63;;;5.05;;
79414;SDS011;68864;44.972;19.612;2023-07-09T01:44:48;17.20;;;8.80;;
79414;SDS011;68864;44.972;19.612;2023-07-09T01:47:16;18.00;;;7.55;;
79414;SDS011;68864;44.972;19.612;2023-07-09T01:49:43;15.20;;;7.80;;
79414;SDS011;68864;44.972;19.612;2023-07-09T01:52:12;9.23;;;4.10;;
79414;SDS011;68864;44.972;19.612;2023-07-09T01:54:41;15.43;;;8.13;;
79414;SDS011;68864;44.972;19.612;2023-07-09T01:59:48;9.45;;;4.15;;
79414;SDS011;68864;44.972;19.612;2023-07-09T02:02:15;14.15;;;8.90;;
79414;SDS011;68864;44.972;19.612;2023-07-09T02:04:45;11.80;;;9.25;;
79414;SDS011;68864;44.972;19.612;2023-07-09T02:07:13;11.07;;;4.72;;
79414;SDS011;68864;44.972;19.612;2023-07-09T02:09:40;14.88;;;8.90;;
79414;SDS011;68864;44.972;19.612;2023-07-09T02:12:08;14.35;;;7.38;;
79414;SDS011;68864;44.972;19.612;2023-07-09T02:14:37;11.73;;;7.35;;
79414;SDS011;68864;44.972;19.612;2023-07-09T02:17:04;9.43;;;4.13;;
79414;SDS011;68864;44.972;19.612;2023-07-09T02:19:31;12.70;;;8.23;;
79414;SDS011;68864;44.972;19.612;2023-07-09T02:21:58;9.52;;;4.28;;
79414;SDS011;68864;44.972;19.612;2023-07-09T02:24:25;12.30;;;4.85;;
79414;SDS011;68864;44.972;19.612;2023-07-09T02:26:53;14.75;;;7.93;;
79414;SDS011;68864;44.972;19.612;2023-07-09T02:29:19;12.93;;;6.75;;
79414;SDS011;68864;44.972;19.612;2023-07-09T02:34:15;12.60;;;7.40;;
79414;SDS011;68864;44.972;19.612;2023-07-09T02:39:09;14.65;;;5.88;;
79414;SDS011;68864;44.972;19.612;2023-07-09T02:41:36;8.73;;;3.67;;
79414;SDS011;68864;44.972;19.612;2023-07-09T02:44:03;10.77;;;5.85;;
79414;SDS011;68864;44.972;19.612;2023-07-09T02:46:30;8.90;;;4.53;;
79414;SDS011;68864;44.972;19.612;2023-07-09T02:48:58;11.95;;;4.43;;
79414;SDS011;68864;44.972;19.612;2023-07-09T02:51:25;12.43;;;6.53;;
79414;SDS011;68864;44.972;19.612;2023-07-09T02:53:53;11.00;;;6.93;;
79414;SDS011;68864;44.972;19.612;2023-07-09T02:56:19;10.85;;;6.40;;
79414;SDS011;68864;44.972;19.612;2023-07-09T02:58:46;10.88;;;7.80;;
79414;SDS011;68864;44.972;19.612;2023-07-09T03:03:39;10.75;;;4.22;;
79414;SDS011;68864;44.972;19.612;2023-07-09T03:06:07;13.40;;;7.47;;
79414;SDS011;68864;44.972;19.612;2023-07-09T03:08:34;10.27;;;3.88;;
79414;SDS011;68864;44.972;19.612;2023-07-09T03:11:07;11.32;;;4.80;;
79414;SDS011;68864;44.972;19.612;2023-07-09T03:13:35;13.88;;;6.88;;
79414;SDS011;68864;44.972;19.612;2023-07-09T03:16:02;11.57;;;7.38;;
79414;SDS011;68864;44.972;19.612;2023-07-09T03:18:29;15.15;;;7.68;;
79414;SDS011;68864;44.972;19.612;2023-07-09T03:23:23;10.02;;;6.50;;
79414;SDS011;68864;44.972;19.612;2023-07-09T03:25:50;10.57;;;3.97;;
79414;SDS011;68864;44.972;19.612;2023-07-09T03:28:17;10.73;;;6.65;;
79414;SDS011;68864;44.972;19.612;2023-07-09T03:30:45;11.68;;;9.32;;
79414;SDS011;68864;44.972;19.612;2023-07-09T03:33:14;10.55;;;7.75;;
79414;SDS011;68864;44.972;19.612;2023-07-09T03:35:42;13.77;;;7.95;;
79414;SDS011;68864;44.972;19.612;2023-07-09T03:38:09;13.98;;;6.15;;
79414;SDS011;68864;44.972;19.612;2023-07-09T03:40:38;12.18;;;6.25;;
79414;SDS011;68864;44.972;19.612;2023-07-09T03:43:05;13.00;;;9.65;;
79414;SDS011;68864;44.972;19.612;2023-07-09T03:45:33;12.00;;;5.55;;
79414;SDS011;68864;44.972;19.612;2023-07-09T03:48:01;10.40;;;6.82;;
79414;SDS011;68864;44.972;19.612;2023-07-09T03:50:28;11.55;;;7.60;;
79414;SDS011;68864;44.972;19.612;2023-07-09T03:52:54;15.13;;;6.43;;
79414;SDS011;68864;44.972;19.612;2023-07-09T03:55:21;10.55;;;5.75;;
79414;SDS011;68864;44.972;19.612;2023-07-09T03:57:52;14.90;;;9.52;;
79414;SDS011;68864;44.972;19.612;2023-07-09T04:00:20;20.52;;;12.43;;
79414;SDS011;68864;44.972;19.612;2023-07-09T04:02:47;25.00;;;16.48;;
79414;SDS011;68864;44.972;19.612;2023-07-09T04:05:15;13.40;;;7.85;;
79414;SDS011;68864;44.972;19.612;2023-07-09T04:07:42;18.35;;;11.30;;
79414;SDS011;68864;44.972;19.612;2023-07-09T04:10:09;13.63;;;7.82;;
79414;SDS011;68864;44.972;19.612;2023-07-09T04:12:37;19.33;;;10.77;;
79414;SDS011;68864;44.972;19.612;2023-07-09T04:15:05;14.55;;;8.93;;
79414;SDS011;68864;44.972;19.612;2023-07-09T04:17:33;11.05;;;7.18;;
79414;SDS011;68864;44.972;19.612;2023-07-09T04:20:01;14.90;;;8.98;;
79414;SDS011;68864;44.972;19.612;2023-07-09T04:22:30;21.80;;;11.93;;
79414;SDS011;68864;44.972;19.612;2023-07-09T04:24:57;16.20;;;10.05;;
79414;SDS011;68864;44.972;19.612;2023-07-09T04:27:24;15.02;;;6.25;;
79414;SDS011;68864;44.972;19.612;2023-07-09T04:29:52;14.55;;;8.45;;
79414;SDS011;68864;44.972;19.612;2023-07-09T04:32:21;11.43;;;7.75;;
79414;SDS011;68864;44.972;19.612;2023-07-09T04:34:48;12.95;;;7.13;;
79414;SDS011;68864;44.972;19.612;2023-07-09T04:37:15;11.27;;;4.30;;
79414;SDS011;68864;44.972;19.612;2023-07-09T04:39:42;9.93;;;4.47;;
79414;SDS011;68864;44.972;19.612;2023-07-09T04:42:10;11.45;;;4.80;;
79414;SDS011;68864;44.972;19.612;2023-07-09T04:44:38;14.10;;;5.65;;
79414;SDS011;68864;44.972;19.612;2023-07-09T04:47:05;13.35;;;8.45;;
79414;SDS011;68864;44.972;19.612;2023-07-09T04:49:34;10.88;;;7.15;;
79414;SDS011;68864;44.972;19.612;2023-07-09T04:52:01;11.85;;;7.40;;
79414;SDS011;68864;44.972;19.612;2023-07-09T04:54:27;11.57;;;7.35;;
79414;SDS011;68864;44.972;19.612;2023-07-09T04:56:55;11.07;;;7.97;;
79414;SDS011;68864;44.972;19.612;2023-07-09T04:59:23;8.48;;;4.50;;
79414;SDS011;68864;44.972;19.612;2023-07-09T05:01:50;12.30;;;7.38;;
79414;SDS011;68864;44.972;19.612;2023-07-09T05:04:17;11.48;;;6.88;;
79414;SDS011;68864;44.972;19.612;2023-07-09T05:06:45;8.85;;;4.10;;
79414;SDS011;68864;44.972;19.612;2023-07-09T05:09:12;10.77;;;5.65;;
79414;SDS011;68864;44.972;19.612;2023-07-09T05:11:39;10.73;;;5.18;;
79414;SDS011;68864;44.972;19.612;2023-07-09T05:16:32;11.23;;;5.45;;
79414;SDS011;68864;44.972;19.612;2023-07-09T05:18:59;27.52;;;14.35;;
79414;SDS011;68864;44.972;19.612;2023-07-09T05:21:25;33.17;;;18.42;;
79414;SDS011;68864;44.972;19.612;2023-07-09T05:23:55;95.97;;;57.20;;
79414;SDS011;68864;44.972;19.612;2023-07-09T05:26:22;43.58;;;24.00;;
79414;SDS011;68864;44.972;19.612;2023-07-09T05:28:49;15.15;;;8.10;;
79414;SDS011;68864;44.972;19.612;2023-07-09T05:31:16;10.20;;;5.55;;
79414;SDS011;68864;44.972;19.612;2023-07-09T05:33:43;15.70;;;9.38;;
79414;SDS011;68864;44.972;19.612;2023-07-09T05:38:40;17.23;;;8.98;;
79414;SDS011;68864;44.972;19.612;2023-07-09T05:41:09;15.25;;;9.30;;
79414;SDS011;68864;44.972;19.612;2023-07-09T05:43:36;13.57;;;6.63;;
79414;SDS011;68864;44.972;19.612;2023-07-09T05:46:04;16.02;;;7.45;;
79414;SDS011;68864;44.972;19.612;2023-07-09T05:48:31;16.85;;;7.57;;
79414;SDS011;68864;44.972;19.612;2023-07-09T05:53:25;24.40;;;15.05;;
79414;SDS011;68864;44.972;19.612;2023-07-09T05:58:20;19.90;;;12.65;;
79414;SDS011;68864;44.972;19.612;2023-07-09T06:00:49;18.27;;;10.80;;
79414;SDS011;68864;44.972;19.612;2023-07-09T06:03:18;18.02;;;11.02;;
79414;SDS011;68864;44.972;19.612;2023-07-09T06:08:14;13.23;;;7.47;;
79414;SDS011;68864;44.972;19.612;2023-07-09T06:13:16;14.88;;;8.02;;
79414;SDS011;68864;44.972;19.612;2023-07-09T06:18:11;13.45;;;8.23;;
79414;SDS011;68864;44.972;19.612;2023-07-09T06:20:38;11.38;;;7.82;;
79414;SDS011;68864;44.972;19.612;2023-07-09T06:25:32;10.25;;;6.82;;
79414;SDS011;68864;44.972;19.612;2023-07-09T06:30:25;11.98;;;6.35;;
79414;SDS011;68864;44.972;19.612;2023-07-09T06:35:20;13.23;;;6.53;;
79414;SDS011;68864;44.972;19.612;2023-07-09T06:40:13;10.40;;;5.53;;
79414;SDS011;68864;44.972;19.612;2023-07-09T06:42:40;10.55;;;5.82;;
79414;SDS011;68864;44.972;19.612;2023-07-09T06:45:07;9.40;;;5.30;;
79414;SDS011;68864;44.972;19.612;2023-07-09T06:47:34;7.70;;;4.10;;
79414;SDS011;68864;44.972;19.612;2023-07-09T06:52:29;8.93;;;3.35;;
79414;SDS011;68864;44.972;19.612;2023-07-09T06:54:56;11.02;;;7.18;;
79414;SDS011;68864;44.972;19.612;2023-07-09T06:57:22;12.00;;;8.45;;
79414;SDS011;68864;44.972;19.612;2023-07-09T07:02:15;9.93;;;6.78;;
79414;SDS011;68864;44.972;19.612;2023-07-09T07:04:42;10.05;;;7.07;;
79414;SDS011;68864;44.972;19.612;2023-07-09T07:09:37;8.88;;;5.85;;
79414;SDS011;68864;44.972;19.612;2023-07-09T07:14:31;8.32;;;5.38;;
79414;SDS011;68864;44.972;19.612;2023-07-09T07:16:58;12.82;;;8.85;;
79414;SDS011;68864;44.972;19.612;2023-07-09T07:21:52;10.75;;;7.75;;
79414;SDS011;68864;44.972;19.612;2023-07-09T07:24:21;9.55;;;6.60;;
79414;SDS011;68864;44.972;19.612;2023-07-09T07:26:48;10.13;;;7.35;;
79414;SDS011;68864;44.972;19.612;2023-07-09T07:29:15;10.73;;;7.93;;
79414;SDS011;68864;44.972;19.612;2023-07-09T07:31:42;10.63;;;7.28;;
79414;SDS011;68864;44.972;19.612;2023-07-09T07:34:08;11.77;;;6.15;;
79414;SDS011;68864;44.972;19.612;2023-07-09T07:36:36;12.00;;;6.72;;
79414;SDS011;68864;44.972;19.612;2023-07-09T07:39:03;8.13;;;6.30;;
79414;SDS011;68864;44.972;19.612;2023-07-09T07:41:31;10.15;;;4.95;;
79414;SDS011;68864;44.972;19.612;2023-07-09T07:43:58;7.22;;;3.03;;
79414;SDS011;68864;44.972;19.612;2023-07-09T07:46:25;7.78;;;2.35;;
79414;SDS011;68864;44.972;19.612;2023-07-09T07:48:54;11.55;;;5.88;;
79414;SDS011;68864;44.972;19.612;2023-07-09T07:51:21;6.47;;;4.43;;
79414;SDS011;68864;44.972;19.612;2023-07-09T07:53:47;6.22;;;3.67;;
79414;SDS011;68864;44.972;19.612;2023-07-09T07:56:14;9.10;;;6.03;;
79414;SDS011;68864;44.972;19.612;2023-07-09T07:58:43;16.27;;;11.50;;
79414;SDS011;68864;44.972;19.612;2023-07-09T08:01:10;26.38;;;20.08;;
79414;SDS011;68864;44.972;19.612;2023-07-09T08:03:36;10.82;;;8.25;;
79414;SDS011;68864;44.972;19.612;2023-07-09T08:06:03;12.70;;;8.25;;
79414;SDS011;68864;44.972;19.612;2023-07-09T08:08:30;11.82;;;5.97;;
79414;SDS011;68864;44.972;19.612;2023-07-09T08:11:00;15.57;;;11.38;;
79414;SDS011;68864;44.972;19.612;2023-07-09T08:13:32;7.97;;;5.13;;
79414;SDS011;68864;44.972;19.612;2023-07-09T08:16:07;9.57;;;7.22;;
79414;SDS011;68864;44.972;19.612;2023-07-09T08:18:36;11.65;;;8.32;;
79414;SDS011;68864;44.972;19.612;2023-07-09T08:21:03;5.63;;;3.28;;
79414;SDS011;68864;44.972;19.612;2023-07-09T08:23:30;11.55;;;6.38;;
79414;SDS011;68864;44.972;19.612;2023-07-09T08:25:57;17.25;;;12.73;;
79414;SDS011;68864;44.972;19.612;2023-07-09T08:28:30;12.38;;;7.13;;
79414;SDS011;68864;44.972;19.612;2023-07-09T08:30:57;10.15;;;6.65;;
79414;SDS011;68864;44.972;19.612;2023-07-09T08:33:31;10.30;;;5.32;;
79414;SDS011;68864;44.972;19.612;2023-07-09T08:35:58;7.78;;;4.68;;
79414;SDS011;68864;44.972;19.612;2023-07-09T08:38:25;6.55;;;5.30;;
79414;SDS011;68864;44.972;19.612;2023-07-09T08:40:54;8.18;;;3.70;;
79414;SDS011;68864;44.972;19.612;2023-07-09T08:43:28;36.63;;;5.05;;
79414;SDS011;68864;44.972;19.612;2023-07-09T08:46:04;7.03;;;3.60;;
79414;SDS011;68864;44.972;19.612;2023-07-09T08:48:44;5.95;;;3.20;;
79414;SDS011;68864;44.972;19.612;2023-07-09T08:51:13;9.13;;;5.32;;
79414;SDS011;68864;44.972;19.612;2023-07-09T08:53:45;12.45;;;11.02;;
79414;SDS011;68864;44.972;19.612;2023-07-09T08:56:16;15.15;;;7.88;;
79414;SDS011;68864;44.972;19.612;2023-07-09T08:58:44;10.15;;;7.20;;
79414;SDS011;68864;44.972;19.612;2023-07-09T09:01:20;10.20;;;7.45;;
79414;SDS011;68864;44.972;19.612;2023-07-09T09:03:53;10.18;;;5.90;;
79414;SDS011;68864;44.972;19.612;2023-07-09T09:06:26;6.38;;;4.15;;
79414;SDS011;68864;44.972;19.612;2023-07-09T09:08:57;8.45;;;6.10;;
79414;SDS011;68864;44.972;19.612;2023-07-09T09:11:42;8.63;;;4.32;;
79414;SDS011;68864;44.972;19.612;2023-07-09T09:14:17;10.35;;;6.10;;
79414;SDS011;68864;44.972;19.612;2023-07-09T09:16:50;11.30;;;7.60;;
79414;SDS011;68864;44.972;19.612;2023-07-09T09:19:20;10.00;;;4.45;;
79414;SDS011;68864;44.972;19.612;2023-07-09T09:21:50;9.48;;;6.40;;
79414;SDS011;68864;44.972;19.612;2023-07-09T09:24:27;10.43;;;5.50;;
79414;SDS011;68864;44.972;19.612;2023-07-09T09:26:58;10.88;;;2.85;;
79414;SDS011;68864;44.972;19.612;2023-07-09T09:29:26;13.10;;;5.38;;
79414;SDS011;68864;44.972;19.612;2023-07-09T09:31:53;8.68;;;6.13;;
79414;SDS011;68864;44.972;19.612;2023-07-09T09:34:25;8.85;;;4.90;;
79414;SDS011;68864;44.972;19.612;2023-07-09T09:36:53;6.90;;;4.25;;
79414;SDS011;68864;44.972;19.612;2023-07-09T09:39:21;9.25;;;6.78;;
79414;SDS011;68864;44.972;19.612;2023-07-09T09:41:51;6.18;;;3.35;;
79414;SDS011;68864;44.972;19.612;2023-07-09T09:44:23;5.22;;;3.13;;
79414;SDS011;68864;44.972;19.612;2023-07-09T09:46:52;5.63;;;2.90;;
79414;SDS011;68864;44.972;19.612;2023-07-09T09:49:23;7.05;;;3.65;;
79414;SDS011;68864;44.972;19.612;2023-07-09T09:52:01;7.55;;;2.00;;
79414;SDS011;68864;44.972;19.612;2023-07-09T09:54:46;4.32;;;2.50;;
79414;SDS011;68864;44.972;19.612;2023-07-09T09:57:23;9.00;;;4.15;;
79414;SDS011;68864;44.972;19.612;2023-07-09T09:59:53;6.35;;;4.40;;
79414;SDS011;68864;44.972;19.612;2023-07-09T10:02:21;6.97;;;6.28;;
79414;SDS011;68864;44.972;19.612;2023-07-09T10:04:51;5.30;;;3.42;;
79414;SDS011;68864;44.972;19.612;2023-07-09T10:07:20;4.35;;;2.53;;
79414;SDS011;68864;44.972;19.612;2023-07-09T10:09:54;4.72;;;2.50;;
79414;SDS011;68864;44.972;19.612;2023-07-09T10:12:31;8.25;;;3.53;;
79414;SDS011;68864;44.972;19.612;2023-07-09T10:15:11;4.38;;;2.67;;
79414;SDS011;68864;44.972;19.612;2023-07-09T10:17:53;4.63;;;3.67;;
79414;SDS011;68864;44.972;19.612;2023-07-09T10:20:33;5.28;;;3.38;;
79414;SDS011;68864;44.972;19.612;2023-07-09T10:23:04;9.90;;;4.28;;
79414;SDS011;68864;44.972;19.612;2023-07-09T10:25:45;4.57;;;3.00;;
79414;SDS011;68864;44.972;19.612;2023-07-09T10:31:20;6.22;;;3.47;;
79414;SDS011;68864;44.972;19.612;2023-07-09T10:33:55;3.78;;;2.45;;
79414;SDS011;68864;44.972;19.612;2023-07-09T10:36:36;5.68;;;4.50;;
79414;SDS011;68864;44.972;19.612;2023-07-09T10:39:15;5.55;;;3.63;;
79414;SDS011;68864;44.972;19.612;2023-07-09T10:41:45;3.35;;;2.33;;
79414;SDS011;68864;44.972;19.612;2023-07-09T10:44:16;4.38;;;3.00;;
79414;SDS011;68864;44.972;19.612;2023-07-09T10:46:50;6.15;;;2.28;;
79414;SDS011;68864;44.972;19.612;2023-07-09T10:49:22;7.32;;;2.58;;
79414;SDS011;68864;44.972;19.612;2023-07-09T10:51:59;10.40;;;5.55;;
79414;SDS011;68864;44.972;19.612;2023-07-09T10:54:32;8.65;;;2.80;;
79414;SDS011;68864;44.972;19.612;2023-07-09T10:57:04;11.00;;;6.70;;
79414;SDS011;68864;44.972;19.612;2023-07-09T10:59:39;13.18;;;8.38;;
79414;SDS011;68864;44.972;19.612;2023-07-09T11:02:13;7.60;;;5.32;;
79414;SDS011;68864;44.972;19.612;2023-07-09T11:04:46;16.58;;;11.15;;
79414;SDS011;68864;44.972;19.612;2023-07-09T11:07:24;9.60;;;5.18;;
79414;SDS011;68864;44.972;19.612;2023-07-09T11:09:55;6.22;;;2.47;;
79414;SDS011;68864;44.972;19.612;2023-07-09T11:12:27;4.90;;;2.72;;
79414;SDS011;68864;44.972;19.612;2023-07-09T11:15:02;7.18;;;3.95;;
79414;SDS011;68864;44.972;19.612;2023-07-09T11:17:33;5.00;;;2.67;;
79414;SDS011;68864;44.972;19.612;2023-07-09T11:20:06;5.75;;;2.90;;
79414;SDS011;68864;44.972;19.612;2023-07-09T11:22:50;7.65;;;3.55;;
79414;SDS011;68864;44.972;19.612;2023-07-09T11:25:26;7.07;;;3.63;;
79414;SDS011;68864;44.972;19.612;2023-07-09T11:28:03;5.55;;;2.60;;
79414;SDS011;68864;44.972;19.612;2023-07-09T11:30:32;4.43;;;2.95;;
79414;SDS011;68864;44.972;19.612;2023-07-09T11:33:03;5.55;;;4.07;;
79414;SDS011;68864;44.972;19.612;2023-07-09T11:35:42;6.22;;;3.50;;
79414;SDS011;68864;44.972;19.612;2023-07-09T11:38:17;6.30;;;3.60;;
79414;SDS011;68864;44.972;19.612;2023-07-09T11:43:25;3.97;;;1.85;;
79414;SDS011;68864;44.972;19.612;2023-07-09T11:45:54;19.55;;;12.45;;
79414;SDS011;68864;44.972;19.612;2023-07-09T11:48:23;13.02;;;9.18;;
79414;SDS011;68864;44.972;19.612;2023-07-09T11:50:53;11.55;;;7.40;;
79414;SDS011;68864;44.972;19.612;2023-07-09T11:53:34;5.25;;;3.30;;
79414;SDS011;68864;44.972;19.612;2023-07-09T11:56:04;9.60;;;6.40;;
79414;SDS011;68864;44.972;19.612;2023-07-09T11:58:34;9.60;;;4.75;;
79414;SDS011;68864;44.972;19.612;2023-07-09T12:01:01;7.93;;;4.97;;
79414;SDS011;68864;44.972;19.612;2023-07-09T12:03:30;5.75;;;4.43;;
79414;SDS011;68864;44.972;19.612;2023-07-09T12:06:04;8.35;;;5.40;;
79414;SDS011;68864;44.972;19.612;2023-07-09T12:08:34;5.43;;;3.33;;
79414;SDS011;68864;44.972;19.612;2023-07-09T12:11:16;9.98;;;4.00;;
79414;SDS011;68864;44.972;19.612;2023-07-09T12:13:46;5.18;;;3.08;;
79414;SDS011;68864;44.972;19.612;2023-07-09T12:16:20;6.03;;;3.80;;
79414;SDS011;68864;44.972;19.612;2023-07-09T12:18:49;3.72;;;2.53;;
79414;SDS011;68864;44.972;19.612;2023-07-09T12:21:19;5.85;;;1.58;;
79414;SDS011;68864;44.972;19.612;2023-07-09T12:23:49;6.57;;;1.98;;
79414;SDS011;68864;44.972;19.612;2023-07-09T12:26:16;6.18;;;3.72;;
79414;SDS011;68864;44.972;19.612;2023-07-09T12:28:49;5.68;;;2.92;;
79414;SDS011;68864;44.972;19.612;2023-07-09T12:31:17;5.68;;;2.92;;
79414;SDS011;68864;44.972;19.612;2023-07-09T12:33:52;8.88;;;4.97;;
79414;SDS011;68864;44.972;19.612;2023-07-09T12:36:35;7.50;;;4.07;;
79414;SDS011;68864;44.972;19.612;2023-07-09T12:39:03;7.70;;;2.90;;
79414;SDS011;68864;44.972;19.612;2023-07-09T12:41:32;10.82;;;2.15;;
79414;SDS011;68864;44.972;19.612;2023-07-09T12:44:02;4.75;;;2.88;;
79414;SDS011;68864;44.972;19.612;2023-07-09T12:46:29;4.35;;;2.67;;
79414;SDS011;68864;44.972;19.612;2023-07-09T12:49:12;5.22;;;4.03;;
79414;SDS011;68864;44.972;19.612;2023-07-09T12:51:48;4.57;;;2.90;;
79414;SDS011;68864;44.972;19.612;2023-07-09T12:54:19;5.28;;;2.53;;
79414;SDS011;68864;44.972;19.612;2023-07-09T12:56:50;4.13;;;2.20;;
79414;SDS011;68864;44.972;19.612;2023-07-09T12:59:19;5.75;;;2.25;;
79414;SDS011;68864;44.972;19.612;2023-07-09T13:01:47;3.00;;;1.75;;
79414;SDS011;68864;44.972;19.612;2023-07-09T13:04:27;7.70;;;4.15;;
79414;SDS011;68864;44.972;19.612;2023-07-09T13:06:55;9.35;;;5.00;;
79414;SDS011;68864;44.972;19.612;2023-07-09T13:09:26;6.53;;;3.47;;
79414;SDS011;68864;44.972;19.612;2023-07-09T13:11:54;5.05;;;3.95;;
79414;SDS011;68864;44.972;19.612;2023-07-09T13:14:25;7.30;;;4.57;;
79414;SDS011;68864;44.972;19.612;2023-07-09T13:17:01;4.82;;;3.22;;
79414;SDS011;68864;44.972;19.612;2023-07-09T13:19:28;4.70;;;3.15;;
79414;SDS011;68864;44.972;19.612;2023-07-09T13:21:55;4.50;;;2.63;;
79414;SDS011;68864;44.972;19.612;2023-07-09T13:24:22;5.10;;;3.08;;
79414;SDS011;68864;44.972;19.612;2023-07-09T13:26:52;4.07;;;2.67;;
79414;SDS011;68864;44.972;19.612;2023-07-09T13:29:19;5.57;;;1.73;;
79414;SDS011;68864;44.972;19.612;2023-07-09T13:31:47;3.72;;;2.78;;
79414;SDS011;68864;44.972;19.612;2023-07-09T13:34:21;4.20;;;2.53;;
79414;SDS011;68864;44.972;19.612;2023-07-09T13:36:49;3.58;;;2.15;;
79414;SDS011;68864;44.972;19.612;2023-07-09T13:39:18;4.65;;;2.25;;
79414;SDS011;68864;44.972;19.612;2023-07-09T13:41:46;9.52;;;3.42;;
79414;SDS011;68864;44.972;19.612;2023-07-09T13:44:16;3.58;;;2.38;;
79414;SDS011;68864;44.972;19.612;2023-07-09T13:46:46;6.18;;;2.30;;
79414;SDS011;68864;44.972;19.612;2023-07-09T13:49:14;4.82;;;3.13;;
79414;SDS011;68864;44.972;19.612;2023-07-09T13:51:44;4.07;;;2.45;;
79414;SDS011;68864;44.972;19.612;2023-07-09T13:54:13;5.93;;;2.28;;
79414;SDS011;68864;44.972;19.612;2023-07-09T13:56:42;7.18;;;4.90;;
79414;SDS011;68864;44.972;19.612;2023-07-09T13:59:13;8.77;;;5.25;;
79414;SDS011;68864;44.972;19.612;2023-07-09T14:01:43;16.33;;;11.25;;
79414;SDS011;68864;44.972;19.612;2023-07-09T14:04:11;9.57;;;4.22;;
79414;SDS011;68864;44.972;19.612;2023-07-09T14:06:40;6.75;;;2.78;;
79414;SDS011;68864;44.972;19.612;2023-07-09T14:09:08;4.15;;;2.42;;
79414;SDS011;68864;44.972;19.612;2023-07-09T14:11:35;7.38;;;4.85;;
79414;SDS011;68864;44.972;19.612;2023-07-09T14:14:10;5.57;;;3.92;;
79414;SDS011;68864;44.972;19.612;2023-07-09T14:16:45;6.70;;;3.67;;
79414;SDS011;68864;44.972;19.612;2023-07-09T14:19:13;14.05;;;7.55;;
79414;SDS011;68864;44.972;19.612;2023-07-09T14:21:41;7.10;;;2.83;;
79414;SDS011;68864;44.972;19.612;2023-07-09T14:24:14;5.38;;;2.75;;
79414;SDS011;68864;44.972;19.612;2023-07-09T14:26:44;4.32;;;2.83;;
79414;SDS011;68864;44.972;19.612;2023-07-09T14:29:11;3.72;;;0.88;;
79414;SDS011;68864;44.972;19.612;2023-07-09T14:31:40;5.78;;;2.45;;
79414;SDS011;68864;44.972;19.612;2023-07-09T14:34:16;3.22;;;0.98;;
79414;SDS011;68864;44.972;19.612;2023-07-09T14:36:45;7.40;;;4.10;;
79414;SDS011;68864;44.972;19.612;2023-07-09T14:39:12;3.40;;;2.67;;
79414;SDS011;68864;44.972;19.612;2023-07-09T14:41:41;5.03;;;2.78;;
79414;SDS011;68864;44.972;19.612;2023-07-09T14:44:19;4.55;;;2.83;;
79414;SDS011;68864;44.972;19.612;2023-07-09T14:46:50;4.10;;;2.08;;
79414;SDS011;68864;44.972;19.612;2023-07-09T14:49:18;4.93;;;3.40;;
79414;SDS011;68864;44.972;19.612;2023-07-09T14:51:45;3.85;;;2.00;;
79414;SDS011;68864;44.972;19.612;2023-07-09T14:54:23;3.58;;;2.35;;
79414;SDS011;68864;44.972;19.612;2023-07-09T14:56:54;5.57;;;3.78;;
79414;SDS011;68864;44.972;19.612;2023-07-09T14:59:22;3.75;;;2.58;;
79414;SDS011;68864;44.972;19.612;2023-07-09T15:01:53;3.40;;;1.63;;
79414;SDS011;68864;44.972;19.612;2023-07-09T15:04:28;2.38;;;0.57;;
79414;SDS011;68864;44.972;19.612;2023-07-09T15:06:57;2.55;;;0.82;;
79414;SDS011;68864;44.972;19.612;2023-07-09T15:09:25;2.80;;;1.65;;
79414;SDS011;68864;44.972;19.612;2023-07-09T15:11:54;1.80;;;0.50;;
79414;SDS011;68864;44.972;19.612;2023-07-09T15:14:23;3.50;;;1.63;;
79414;SDS011;68864;44.972;19.612;2023-07-09T15:16:52;3.67;;;3.10;;
79414;SDS011;68864;44.972;19.612;2023-07-09T15:19:20;3.55;;;1.80;;
79414;SDS011;68864;44.972;19.612;2023-07-09T15:21:48;3.88;;;2.55;;
79414;SDS011;68864;44.972;19.612;2023-07-09T15:24:19;3.25;;;2.88;;
79414;SDS011;68864;44.972;19.612;2023-07-09T15:26:48;3.42;;;2.13;;
79414;SDS011;68864;44.972;19.612;2023-07-09T15:29:17;4.82;;;3.10;;
79414;SDS011;68864;44.972;19.612;2023-07-09T15:31:44;4.45;;;3.92;;
79414;SDS011;68864;44.972;19.612;2023-07-09T15:34:12;3.88;;;1.50;;
79414;SDS011;68864;44.972;19.612;2023-07-09T15:36:40;3.75;;;2.80;;
79414;SDS011;68864;44.972;19.612;2023-07-09T15:39:09;4.22;;;2.25;;
79414;SDS011;68864;44.972;19.612;2023-07-09T15:41:37;4.82;;;2.42;;
79414;SDS011;68864;44.972;19.612;2023-07-09T15:44:04;6.55;;;2.50;;
79414;SDS011;68864;44.972;19.612;2023-07-09T15:46:31;3.90;;;2.38;;
79414;SDS011;68864;44.972;19.612;2023-07-09T15:49:00;3.50;;;0.43;;
79414;SDS011;68864;44.972;19.612;2023-07-09T15:51:28;3.38;;;2.53;;
79414;SDS011;68864;44.972;19.612;2023-07-09T15:53:54;3.78;;;2.88;;
79414;SDS011;68864;44.972;19.612;2023-07-09T15:56:22;3.28;;;1.75;;
79414;SDS011;68864;44.972;19.612;2023-07-09T15:58:51;2.83;;;1.42;;